createdAt,value
2022-11-27T00:00:31.038Z,1021.47
2022-11-27T00:01:31.037Z,1021.47
2022-11-27T00:02:31.953Z,1021.49
2022-11-27T00:03:31.094Z,1021.52
2022-11-27T00:04:30.991Z,1021.49
2022-11-27T00:05:30.992Z,1021.44
2022-11-27T00:06:30.958Z,1021.45
2022-11-27T00:07:31.048Z,1021.40
2022-11-27T00:08:30.948Z,1021.35
2022-11-27T00:09:30.928Z,1021.34
2022-11-27T00:10:30.931Z,1021.28
2022-11-27T00:11:30.925Z,1021.30
2022-11-27T00:12:30.892Z,1021.26
2022-11-27T00:13:30.884Z,1021.26
2022-11-27T00:14:30.885Z,1021.21
2022-11-27T00:15:30.944Z,1021.22
2022-11-27T00:16:30.911Z,1021.25
2022-11-27T00:17:30.854Z,1021.26
2022-11-27T00:18:30.840Z,1021.23
2022-11-27T00:19:30.835Z,1021.23
2022-11-27T00:20:30.802Z,1021.21
2022-11-27T00:21:30.806Z,1021.20
2022-11-27T00:22:30.778Z,1021.14
2022-11-27T00:23:30.814Z,1021.11
2022-11-27T00:24:30.769Z,1021.13
2022-11-27T00:25:30.769Z,1021.14
2022-11-27T00:26:35.897Z,1021.14
2022-11-27T00:27:31.737Z,1021.14
2022-11-27T00:28:30.721Z,1021.17
2022-11-27T00:29:30.721Z,1021.23
2022-11-27T00:30:30.740Z,1021.20
2022-11-27T00:31:30.748Z,1021.25
2022-11-27T00:32:30.665Z,1021.23
2022-11-27T00:33:30.663Z,1021.22
2022-11-27T00:34:30.658Z,1021.21
2022-11-27T00:35:30.637Z,1021.21
2022-11-27T00:36:30.639Z,1021.19
2022-11-27T00:37:30.633Z,1021.20
2022-11-27T00:38:33.517Z,1021.20
2022-11-27T00:39:31.638Z,1021.20
2022-11-27T00:40:30.575Z,1021.17
2022-11-27T00:41:30.578Z,1021.21
2022-11-27T00:42:30.553Z,1021.20
2022-11-27T00:43:30.545Z,1021.21
2022-11-27T00:44:30.547Z,1021.22
2022-11-27T00:45:30.523Z,1021.16
2022-11-27T00:46:30.567Z,1021.18
2022-11-27T00:47:30.504Z,1021.17
2022-11-27T00:48:30.485Z,1021.16
2022-11-27T00:49:30.491Z,1021.13
2022-11-27T00:50:30.481Z,1021.10
2022-11-27T00:51:30.471Z,1021.10
2022-11-27T00:52:30.440Z,1021.10
2022-11-27T00:53:30.442Z,1021.07
2022-11-27T00:54:30.434Z,1021.05
2022-11-27T00:55:30.432Z,1021.04
2022-11-27T00:56:30.413Z,1021.07
2022-11-27T00:57:30.388Z,1021.11
2022-11-27T00:58:30.372Z,1021.06
2022-11-27T00:59:30.368Z,1021.05
2022-11-27T01:00:30.377Z,1021.07
2022-11-27T01:01:30.462Z,1021.05
2022-11-27T01:02:30.423Z,1021.04
2022-11-27T01:03:30.334Z,1021.07
2022-11-27T01:04:30.321Z,1021.01
2022-11-27T01:05:30.321Z,1021.04
2022-11-27T01:06:30.296Z,1021.05
2022-11-27T01:07:30.339Z,1021.03
2022-11-27T01:08:30.300Z,1020.99
2022-11-27T01:09:30.252Z,1021.02
2022-11-27T01:10:30.237Z,1021.01
2022-11-27T01:11:30.265Z,1021.02
2022-11-27T01:12:30.219Z,1020.98
2022-11-27T01:13:30.208Z,1021.00
2022-11-27T01:14:30.206Z,1021.02
2022-11-27T01:15:30.185Z,1021.00
2022-11-27T01:16:30.256Z,1021.01
2022-11-27T01:17:30.167Z,1021.03
2022-11-27T01:18:30.164Z,1021.03
2022-11-27T01:19:30.156Z,1021.01
2022-11-27T01:20:30.138Z,1020.98
2022-11-27T01:21:30.131Z,1020.98
2022-11-27T01:22:30.116Z,1021.00
2022-11-27T01:23:30.100Z,1020.99
2022-11-27T01:24:30.092Z,1021.00
2022-11-27T01:25:30.074Z,1021.03
2022-11-27T01:26:30.080Z,1020.98
2022-11-27T01:27:30.074Z,1020.99
2022-11-27T01:28:30.036Z,1020.96
2022-11-27T01:29:30.032Z,1020.94
2022-11-27T01:30:30.013Z,1020.97
2022-11-27T01:31:30.160Z,1020.98
2022-11-27T01:32:30.015Z,1020.94
2022-11-27T01:33:29.983Z,1020.99
2022-11-27T01:34:29.982Z,1021.00
2022-11-27T01:35:31.324Z,1021.01
2022-11-27T01:36:30.261Z,1020.97
2022-11-27T01:37:29.963Z,1020.99
2022-11-27T01:38:29.923Z,1020.94
2022-11-27T01:39:29.928Z,1020.98
2022-11-27T01:40:29.914Z,1020.92
2022-11-27T01:41:29.907Z,1020.94
2022-11-27T01:42:29.907Z,1020.96
2022-11-27T01:43:29.895Z,1020.98
2022-11-27T01:44:29.860Z,1020.98
2022-11-27T01:45:29.872Z,1020.98
2022-11-27T01:46:29.946Z,1020.96
2022-11-27T01:47:29.840Z,1020.98
2022-11-27T01:48:29.824Z,1020.93
2022-11-27T01:49:29.805Z,1020.90
2022-11-27T01:50:29.801Z,1020.89
2022-11-27T01:51:29.795Z,1020.83
2022-11-27T01:52:29.815Z,1020.85
2022-11-27T01:53:29.765Z,1020.82
2022-11-27T01:54:29.756Z,1020.85
2022-11-27T01:55:29.738Z,1020.83
2022-11-27T01:56:29.732Z,1020.89
2022-11-27T01:57:29.728Z,1020.88
2022-11-27T01:58:29.705Z,1020.82
2022-11-27T01:59:29.736Z,1020.77
2022-11-27T02:00:29.677Z,1020.75
2022-11-27T02:01:29.721Z,1020.71
2022-11-27T02:02:29.768Z,1020.74
2022-11-27T02:03:29.662Z,1020.75
2022-11-27T02:04:29.650Z,1020.70
2022-11-27T02:05:29.650Z,1020.68
2022-11-27T02:06:29.611Z,1020.67
2022-11-27T02:07:29.673Z,1020.61
2022-11-27T02:08:29.593Z,1020.59
2022-11-27T02:09:29.598Z,1020.60
2022-11-27T02:10:29.563Z,1020.55
2022-11-27T02:11:29.570Z,1020.63
2022-11-27T02:12:29.541Z,1020.61
2022-11-27T02:13:29.553Z,1020.55
2022-11-27T02:14:29.531Z,1020.57
2022-11-27T02:15:29.515Z,1020.56
2022-11-27T02:16:29.653Z,1020.58
2022-11-27T07:56:06.864Z,1017.26
2022-11-27T07:57:06.742Z,1017.24
2022-11-27T07:58:06.721Z,1017.22
2022-11-27T07:59:06.689Z,1017.18
2022-11-27T08:00:06.689Z,1017.19
2022-11-27T08:01:06.725Z,1017.10
2022-11-27T08:02:06.681Z,1017.11
2022-11-27T08:03:06.651Z,1017.01
2022-11-27T08:04:06.651Z,1016.98
2022-11-27T08:05:12.177Z,1017.03
2022-11-27T08:06:07.607Z,1017.02
2022-11-27T08:07:06.634Z,1017.00
2022-11-27T08:08:06.692Z,1016.98
2022-11-27T08:09:06.583Z,1016.99
2022-11-27T08:10:06.578Z,1016.93
2022-11-27T08:11:06.572Z,1016.93
2022-11-27T08:12:06.688Z,1016.91
2022-11-27T08:13:06.590Z,1016.91
2022-11-27T08:14:06.567Z,1016.87
2022-11-27T08:15:06.507Z,1016.82
2022-11-27T08:16:06.804Z,1016.88
2022-11-27T08:17:06.492Z,1016.78
2022-11-27T08:18:06.488Z,1016.82
2022-11-27T08:19:06.470Z,1016.78
2022-11-27T08:20:06.485Z,1016.78
2022-11-27T08:21:06.447Z,1016.83
2022-11-27T08:22:06.432Z,1016.82
2022-11-27T08:23:06.413Z,1016.84
2022-11-27T08:24:06.451Z,1016.80
2022-11-27T08:25:06.401Z,1016.83
2022-11-27T08:26:06.397Z,1016.85
2022-11-27T08:27:06.370Z,1016.82
2022-11-27T08:28:06.491Z,1016.82
2022-11-27T08:29:06.345Z,1016.93
2022-11-27T08:30:06.378Z,1017.03
2022-11-27T08:31:06.326Z,1017.08
2022-11-27T08:32:06.365Z,1017.13
2022-11-27T08:33:06.329Z,1017.15
2022-11-27T08:34:06.310Z,1017.12
2022-11-27T08:35:06.292Z,1017.08
2022-11-27T08:36:09.034Z,1017.07
2022-11-27T08:37:06.256Z,1017.02
2022-11-27T08:38:06.246Z,1017.03
2022-11-27T08:39:06.232Z,1017.10
2022-11-27T08:40:06.222Z,1017.13
2022-11-27T08:41:06.206Z,1017.17
2022-11-27T08:42:06.228Z,1017.22
2022-11-27T08:43:06.185Z,1017.24
2022-11-27T08:44:09.297Z,1017.28
2022-11-27T08:45:06.175Z,1017.22
2022-11-27T08:46:06.364Z,1017.20
2022-11-27T08:47:06.195Z,1017.17
2022-11-27T08:48:06.144Z,1017.17
2022-11-27T08:49:06.126Z,1017.20
2022-11-27T08:50:06.114Z,1017.17
2022-11-27T08:51:06.110Z,1017.09
2022-11-27T08:52:06.105Z,1016.96
2022-11-27T08:53:06.105Z,1016.93
2022-11-27T08:54:06.079Z,1016.87
2022-11-27T08:55:06.049Z,1016.87
2022-11-27T08:56:06.055Z,1016.92
2022-11-27T08:57:06.025Z,1016.96
2022-11-27T08:58:06.019Z,1017.02
2022-11-27T08:59:06.018Z,1017.08
2022-11-27T09:00:06.134Z,1017.11
2022-11-27T09:01:06.024Z,1017.09
2022-11-27T09:02:05.986Z,1017.04
2022-11-27T09:03:05.956Z,1017.07
2022-11-27T09:04:06.062Z,1017.12
2022-11-27T09:05:05.945Z,1017.08
2022-11-27T09:06:05.943Z,1017.09
2022-11-27T09:07:05.915Z,1017.12
2022-11-27T09:08:05.904Z,1017.12
2022-11-27T09:09:05.894Z,1017.03
2022-11-27T09:10:05.919Z,1016.99
2022-11-27T09:11:05.867Z,1016.98
2022-11-27T09:12:05.884Z,1016.96
2022-11-27T09:13:05.844Z,1016.94
2022-11-27T09:14:05.859Z,1016.91
2022-11-27T09:15:05.835Z,1016.85
2022-11-27T09:16:11.827Z,1016.78
2022-11-27T09:17:06.927Z,1016.77
2022-11-27T09:18:05.805Z,1016.74
2022-11-27T09:19:05.775Z,1016.76
2022-11-27T09:20:05.780Z,1016.78
2022-11-27T09:21:05.755Z,1016.70
2022-11-27T09:22:05.773Z,1016.66
2022-11-27T09:23:10.134Z,1016.62
2022-11-27T09:24:06.725Z,1016.67
2022-11-27T09:25:05.737Z,1016.62
2022-11-27T09:26:05.714Z,1016.68
2022-11-27T09:27:05.714Z,1016.62
2022-11-27T09:28:05.691Z,1016.61
2022-11-27T09:29:05.665Z,1016.65
2022-11-27T09:30:05.669Z,1016.68
2022-11-27T09:31:05.653Z,1016.65
2022-11-27T09:32:05.661Z,1016.59
2022-11-27T09:33:05.752Z,1016.57
2022-11-27T09:34:05.625Z,1016.53
2022-11-27T09:35:05.628Z,1016.55
2022-11-27T09:36:05.604Z,1016.54
2022-11-27T09:37:05.571Z,1016.53
2022-11-27T09:38:05.753Z,1016.58
2022-11-27T09:39:05.566Z,1016.57
2022-11-27T09:40:05.557Z,1016.53
2022-11-27T09:41:05.527Z,1016.59
2022-11-27T09:42:05.540Z,1016.53
2022-11-27T09:43:05.518Z,1016.58
2022-11-27T09:44:05.530Z,1016.53
2022-11-27T09:45:05.499Z,1016.52
2022-11-27T09:46:05.530Z,1016.52
2022-11-27T09:47:05.472Z,1016.47
2022-11-27T09:48:05.480Z,1016.38
2022-11-27T09:49:05.566Z,1016.44
2022-11-27T09:50:05.442Z,1016.43
2022-11-27T09:51:05.432Z,1016.39
2022-11-27T09:52:05.408Z,1016.38
2022-11-27T09:53:05.410Z,1016.38
2022-11-27T09:54:05.420Z,1016.41
2022-11-27T09:55:05.369Z,1016.37
2022-11-27T09:56:05.376Z,1016.34
2022-11-27T09:57:05.358Z,1016.32
2022-11-27T09:58:05.365Z,1016.31
2022-11-27T09:59:05.431Z,1016.23
2022-11-27T10:00:05.331Z,1016.30
2022-11-27T10:01:05.335Z,1016.34
2022-11-27T10:02:05.360Z,1016.25
2022-11-27T10:03:05.416Z,1016.31
2022-11-27T10:04:05.290Z,1016.32
2022-11-27T10:05:13.951Z,1016.32
2022-11-27T10:06:06.261Z,1016.28
2022-11-27T10:07:05.244Z,1016.27
2022-11-27T10:08:07.122Z,1016.29
2022-11-27T10:09:05.230Z,1016.22
2022-11-27T10:10:05.214Z,1016.31
2022-11-27T10:11:05.256Z,1016.32
2022-11-27T10:12:05.192Z,1016.31
2022-11-27T10:13:05.175Z,1016.22
2022-11-27T10:14:05.176Z,1016.23
2022-11-27T10:15:05.153Z,1016.27
2022-11-27T10:16:05.168Z,1016.23
2022-11-27T10:17:05.207Z,1016.17
2022-11-27T10:18:05.110Z,1016.18
2022-11-27T10:19:05.110Z,1016.13
2022-11-27T10:20:05.103Z,1016.18
2022-11-27T10:21:05.199Z,1016.13
2022-11-27T10:22:05.078Z,1016.12
2022-11-27T10:23:05.055Z,1016.11
2022-11-27T10:24:05.059Z,1016.08
2022-11-27T10:25:05.089Z,1016.13
2022-11-27T10:26:05.031Z,1016.10
2022-11-27T10:27:05.004Z,1016.13
2022-11-27T10:28:05.013Z,1016.17
2022-11-27T10:29:04.993Z,1016.15
2022-11-27T10:30:04.990Z,1016.12
2022-11-27T10:31:04.955Z,1016.08
2022-11-27T10:32:05.005Z,1016.02
2022-11-27T10:33:04.988Z,1015.98
2022-11-27T10:34:04.944Z,1016.03
2022-11-27T10:35:05.869Z,1015.97
2022-11-27T10:36:04.916Z,1015.99
2022-11-27T10:37:05.006Z,1016.01
2022-11-27T10:38:07.031Z,1015.95
2022-11-27T10:39:04.882Z,1015.95
2022-11-27T10:40:04.926Z,1015.98
2022-11-27T10:41:04.843Z,1015.93
2022-11-27T10:42:04.835Z,1015.92
2022-11-27T10:43:04.827Z,1015.87
2022-11-27T10:44:04.832Z,1015.86
2022-11-27T10:45:04.796Z,1015.85
2022-11-27T10:46:04.847Z,1015.88
2022-11-27T10:47:04.791Z,1015.83
2022-11-27T10:48:04.886Z,1015.80
2022-11-27T10:49:04.771Z,1015.78
2022-11-27T10:50:04.747Z,1015.80
2022-11-27T10:51:04.759Z,1015.83
2022-11-27T10:52:04.741Z,1015.80
2022-11-27T10:53:04.832Z,1015.81
2022-11-27T10:54:04.699Z,1015.80
2022-11-27T10:55:04.705Z,1015.80
2022-11-27T10:56:04.689Z,1015.74
2022-11-27T10:57:04.675Z,1015.74
2022-11-27T10:58:04.723Z,1015.71
2022-11-27T10:59:04.640Z,1015.70
2022-11-27T11:00:04.643Z,1015.67
2022-11-27T11:01:04.758Z,1015.66
2022-11-27T11:02:04.674Z,1015.58
2022-11-27T11:03:04.634Z,1015.56
2022-11-27T11:04:24.223Z,1015.56
2022-11-27T11:05:31.232Z,1015.53
2022-11-27T11:06:20.926Z,1015.56
2022-11-27T11:07:05.550Z,1015.60
2022-11-27T11:08:04.543Z,1015.61
2022-11-27T11:09:04.658Z,1015.61
2022-11-27T11:10:04.529Z,1015.60
2022-11-27T11:11:04.525Z,1015.56
2022-11-27T11:12:04.497Z,1015.53
2022-11-27T11:13:04.494Z,1015.51
2022-11-27T11:14:04.472Z,1015.51
2022-11-27T11:15:04.467Z,1015.49
2022-11-27T11:16:04.543Z,1015.50
2022-11-27T11:17:04.509Z,1015.46
2022-11-27T11:18:04.439Z,1015.44
2022-11-27T11:19:04.424Z,1015.37
2022-11-27T11:20:04.405Z,1015.36
2022-11-27T11:21:04.403Z,1015.36
2022-11-27T11:22:04.395Z,1015.39
2022-11-27T11:23:04.365Z,1015.40
2022-11-27T11:24:04.369Z,1015.35
2022-11-27T11:25:04.457Z,1015.36
2022-11-27T11:26:04.360Z,1015.33
2022-11-27T11:27:04.331Z,1015.33
2022-11-27T11:28:04.324Z,1015.27
2022-11-27T11:29:04.309Z,1015.24
2022-11-27T11:30:04.299Z,1015.16
2022-11-27T11:31:04.273Z,1015.12
2022-11-27T11:32:04.337Z,1015.06
2022-11-27T11:33:04.267Z,1015.03
2022-11-27T11:34:04.268Z,1015.02
2022-11-27T11:35:04.239Z,1014.99
2022-11-27T11:36:04.320Z,1014.91
2022-11-27T11:37:04.206Z,1014.91
2022-11-27T11:38:04.229Z,1014.86
2022-11-27T11:39:04.195Z,1014.86
2022-11-27T11:40:04.191Z,1014.83
2022-11-27T11:41:04.296Z,1014.81
2022-11-27T11:42:04.145Z,1014.78
2022-11-27T11:43:04.166Z,1014.76
2022-11-27T11:44:04.138Z,1014.68
2022-11-27T11:45:04.129Z,1014.67
2022-11-27T11:46:04.169Z,1014.63
2022-11-27T11:47:04.110Z,1014.62
2022-11-27T11:48:04.101Z,1014.63
2022-11-27T11:49:04.087Z,1014.63
2022-11-27T11:50:04.056Z,1014.64
2022-11-27T11:51:04.072Z,1014.62
2022-11-27T11:52:04.052Z,1014.56
2022-11-27T11:53:04.044Z,1014.56
2022-11-27T11:54:04.025Z,1014.52
2022-11-27T11:55:04.017Z,1014.49
2022-11-27T11:56:04.004Z,1014.46
2022-11-27T11:57:04.105Z,1014.41
2022-11-27T11:58:03.988Z,1014.30
2022-11-27T11:59:03.963Z,1014.28
2022-11-27T12:00:03.979Z,1014.26
2022-11-27T12:01:25.964Z,1014.24
2022-11-27T12:02:05.126Z,1014.24
2022-11-27T12:03:04.036Z,1014.23
2022-11-27T12:04:03.932Z,1014.16
2022-11-27T12:05:03.896Z,1014.13
2022-11-27T12:06:03.892Z,1014.10
2022-11-27T12:07:03.885Z,1014.15
2022-11-27T12:08:03.939Z,1014.09
2022-11-27T12:09:03.857Z,1014.04
2022-11-27T12:10:03.841Z,1014.06
2022-11-27T12:11:03.837Z,1013.99
2022-11-27T12:12:03.807Z,1013.94
2022-11-27T12:13:03.925Z,1013.95
2022-11-27T12:14:03.835Z,1013.97
2022-11-27T12:15:03.777Z,1013.99
2022-11-27T12:16:03.772Z,1013.96
2022-11-27T12:17:03.859Z,1014.00
2022-11-27T12:18:03.751Z,1013.98
2022-11-27T12:19:03.748Z,1013.89
2022-11-27T12:20:03.725Z,1013.83
2022-11-27T12:21:03.707Z,1013.79
2022-11-27T12:22:03.703Z,1013.66
2022-11-27T12:23:03.684Z,1013.62
2022-11-27T12:24:03.666Z,1013.60
2022-11-27T12:25:03.720Z,1013.59
2022-11-27T12:26:03.658Z,1013.60
2022-11-27T12:27:03.640Z,1013.50
2022-11-27T12:28:03.634Z,1013.45
2022-11-27T12:29:03.743Z,1013.44
2022-11-27T12:30:03.605Z,1013.44
2022-11-27T12:31:03.703Z,1013.42
2022-11-27T12:32:03.658Z,1013.39
2022-11-27T12:33:03.568Z,1013.41
2022-11-27T12:34:03.552Z,1013.34
2022-11-27T12:35:03.546Z,1013.36
2022-11-27T12:36:03.565Z,1013.35
2022-11-27T12:37:03.526Z,1013.33
2022-11-27T12:38:03.512Z,1013.36
2022-11-27T12:39:03.520Z,1013.34
2022-11-27T12:40:03.498Z,1013.34
2022-11-27T12:41:03.514Z,1013.29
2022-11-27T12:42:03.589Z,1013.32
2022-11-27T12:43:03.459Z,1013.26
2022-11-27T12:44:03.451Z,1013.30
2022-11-27T12:45:03.562Z,1013.26
2022-11-27T12:46:03.501Z,1013.22
2022-11-27T12:47:03.426Z,1013.21
2022-11-27T12:48:03.404Z,1013.20
2022-11-27T12:49:03.432Z,1013.11
2022-11-27T12:50:03.385Z,1013.13
2022-11-27T12:51:03.383Z,1013.08
2022-11-27T12:52:03.368Z,1013.07
2022-11-27T12:53:03.361Z,1013.00
2022-11-27T12:54:03.339Z,1013.00
2022-11-27T12:55:03.340Z,1012.98
2022-11-27T12:56:03.315Z,1012.93
2022-11-27T12:57:03.309Z,1013.01
2022-11-27T12:58:03.280Z,1012.93
2022-11-27T12:59:03.288Z,1012.91
2022-11-27T13:00:03.256Z,1012.91
2022-11-27T13:01:03.535Z,1012.95
2022-11-27T13:02:03.358Z,1012.89
2022-11-27T13:03:03.238Z,1012.86
2022-11-27T13:04:03.229Z,1012.88
2022-11-27T13:05:03.205Z,1012.88
2022-11-27T13:06:03.199Z,1012.81
2022-11-27T13:07:03.194Z,1012.83
2022-11-27T13:08:03.317Z,1012.86
2022-11-27T13:09:03.171Z,1012.85
2022-11-27T13:10:03.143Z,1012.85
2022-11-27T13:11:03.180Z,1012.85
2022-11-27T13:12:03.179Z,1012.81
2022-11-27T13:13:03.117Z,1012.78
2022-11-27T13:14:03.099Z,1012.77
2022-11-27T13:15:03.089Z,1012.76
2022-11-27T13:16:03.158Z,1012.72
2022-11-27T13:17:03.300Z,1012.70
2022-11-27T13:18:03.082Z,1012.67
2022-11-27T13:19:03.050Z,1012.68
2022-11-27T13:20:03.030Z,1012.64
2022-11-27T13:21:03.047Z,1012.64
2022-11-27T13:22:03.021Z,1012.64
2022-11-27T13:23:03.032Z,1012.62
2022-11-27T13:24:02.998Z,1012.65
2022-11-27T13:25:02.996Z,1012.62
2022-11-27T13:26:02.977Z,1012.63
2022-11-27T13:27:02.954Z,1012.57
2022-11-27T13:28:02.957Z,1012.61
2022-11-27T13:29:02.929Z,1012.57
2022-11-27T13:30:02.933Z,1012.62
2022-11-27T13:31:02.914Z,1012.61
2022-11-27T13:32:03.054Z,1012.61
2022-11-27T13:33:03.012Z,1012.61
2022-11-27T13:34:02.912Z,1012.59
2022-11-27T13:35:02.874Z,1012.61
2022-11-27T13:36:02.881Z,1012.57
2022-11-27T13:37:02.839Z,1012.61
2022-11-27T13:38:02.836Z,1012.58
2022-11-27T13:39:02.834Z,1012.57
2022-11-27T13:40:02.798Z,1012.56
2022-11-27T13:41:02.805Z,1012.56
2022-11-27T13:42:02.777Z,1012.51
2022-11-27T13:43:02.800Z,1012.54
2022-11-27T13:44:02.781Z,1012.52
2022-11-27T13:45:02.747Z,1012.45
2022-11-27T13:46:02.840Z,1012.46
2022-11-27T13:47:02.741Z,1012.43
2022-11-27T13:48:02.710Z,1012.43
2022-11-27T13:49:02.833Z,1012.43
2022-11-27T13:50:02.712Z,1012.46
2022-11-27T13:51:02.701Z,1012.47
2022-11-27T13:52:02.676Z,1012.50
2022-11-27T13:53:02.670Z,1012.49
2022-11-27T13:54:02.669Z,1012.46
2022-11-27T13:55:02.650Z,1012.47
2022-11-27T13:56:02.630Z,1012.49
2022-11-27T13:57:02.612Z,1012.46
2022-11-27T13:58:02.599Z,1012.51
2022-11-27T13:59:02.587Z,1012.48
2022-11-27T14:00:02.599Z,1012.51
2022-11-27T14:01:02.676Z,1012.48
2022-11-27T14:02:02.621Z,1012.45
2022-11-27T14:03:02.552Z,1012.44
2022-11-27T14:04:02.538Z,1012.47
2022-11-27T14:05:02.650Z,1012.46
2022-11-27T14:06:02.517Z,1012.45
2022-11-27T14:07:02.510Z,1012.47
2022-11-27T14:08:02.587Z,1012.51
2022-11-27T14:09:02.490Z,1012.51
2022-11-27T14:10:02.486Z,1012.54
2022-11-27T14:11:02.463Z,1012.52
2022-11-27T14:12:02.440Z,1012.52
2022-11-27T14:13:02.439Z,1012.48
2022-11-27T14:14:02.439Z,1012.46
2022-11-27T14:15:02.419Z,1012.49
2022-11-27T14:16:02.561Z,1012.48
2022-11-27T14:17:02.396Z,1012.53
2022-11-27T14:18:02.382Z,1012.52
2022-11-27T14:19:02.371Z,1012.49
2022-11-27T14:20:02.378Z,1012.47
2022-11-27T14:21:02.454Z,1012.45
2022-11-27T14:22:02.337Z,1012.47
2022-11-27T14:23:14.735Z,1012.49
2022-11-27T14:24:03.308Z,1012.51
2022-11-27T14:25:02.305Z,1012.50
2022-11-27T14:26:02.286Z,1012.46
2022-11-27T14:27:02.267Z,1012.42
2022-11-27T14:28:02.265Z,1012.36
2022-11-27T14:29:02.245Z,1012.41
2022-11-27T14:30:02.245Z,1012.37
2022-11-27T14:31:02.234Z,1012.32
2022-11-27T14:32:02.342Z,1012.27
2022-11-27T14:33:02.202Z,1012.26
2022-11-27T14:34:19.664Z,1012.21
2022-11-27T14:35:03.191Z,1012.22
2022-11-27T14:36:02.162Z,1012.20
2022-11-27T14:37:02.270Z,1012.22
2022-11-27T14:38:02.138Z,1012.31
2022-11-27T14:39:02.136Z,1012.43
2022-11-27T14:40:02.116Z,1012.49
2022-11-27T14:41:02.140Z,1012.63
2022-11-27T14:42:02.092Z,1012.62
2022-11-27T14:43:02.089Z,1012.69
2022-11-27T14:44:02.083Z,1012.78
2022-11-27T14:45:02.071Z,1012.82
2022-11-27T14:46:02.059Z,1012.72
2022-11-27T14:47:02.168Z,1012.70
2022-11-27T14:48:02.037Z,1012.65
2022-11-27T14:49:02.016Z,1012.53
2022-11-27T14:50:02.017Z,1012.56
2022-11-27T14:51:01.993Z,1012.60
2022-11-27T14:52:01.997Z,1012.60
2022-11-27T14:53:07.872Z,1012.65
2022-11-27T14:54:03.088Z,1012.66
2022-11-27T14:55:01.947Z,1012.66
2022-11-27T14:56:01.932Z,1012.62
2022-11-27T14:57:01.947Z,1012.60
2022-11-27T14:58:01.922Z,1012.62
2022-11-27T14:59:01.902Z,1012.60
2022-11-27T15:00:01.884Z,1012.59
2022-11-27T15:01:01.880Z,1012.56
2022-11-27T15:02:01.953Z,1012.52
2022-11-27T15:03:02.047Z,1012.51
2022-11-27T15:04:01.849Z,1012.49
2022-11-27T15:05:01.855Z,1012.50
2022-11-27T15:06:01.840Z,1012.50
2022-11-27T15:07:01.817Z,1012.51
2022-11-27T15:08:01.894Z,1012.54
2022-11-27T15:09:30.362Z,1012.48
2022-11-27T15:10:02.901Z,1012.41
2022-11-27T15:11:01.780Z,1012.43
2022-11-27T15:12:01.750Z,1012.43
2022-11-27T15:13:01.773Z,1012.35
2022-11-27T15:14:01.726Z,1012.31
2022-11-27T15:15:01.721Z,1012.32
2022-11-27T15:16:01.771Z,1012.26
2022-11-27T15:17:01.717Z,1012.28
2022-11-27T15:18:01.680Z,1012.25
2022-11-27T15:19:01.696Z,1012.23
2022-11-27T15:20:01.655Z,1012.25
2022-11-27T15:21:01.648Z,1012.20
2022-11-27T15:22:01.649Z,1012.24
2022-11-27T15:23:01.629Z,1012.26
2022-11-27T15:24:01.625Z,1012.22
2022-11-27T15:25:01.642Z,1012.22
2022-11-27T15:26:01.724Z,1012.21
2022-11-27T15:27:01.579Z,1012.21
2022-11-27T15:28:01.564Z,1012.11
2022-11-27T15:29:01.570Z,1012.07
2022-11-27T15:30:01.784Z,1012.04
2022-11-27T15:31:01.546Z,1012.00
2022-11-27T15:32:01.559Z,1011.97
2022-11-27T15:33:01.519Z,1011.93
2022-11-27T15:34:01.500Z,1011.91
2022-11-27T15:35:01.518Z,1011.92
2022-11-27T15:36:01.491Z,1011.84
2022-11-27T15:37:01.496Z,1011.82
2022-11-27T15:38:01.454Z,1011.87
2022-11-27T15:39:01.446Z,1011.86
2022-11-27T15:40:01.445Z,1011.87
2022-11-27T15:41:01.452Z,1011.88
2022-11-27T15:42:01.542Z,1011.92
2022-11-27T15:43:01.413Z,1012.02
2022-11-27T15:44:01.384Z,1012.04
2022-11-27T15:45:01.384Z,1012.08
2022-11-27T15:46:01.470Z,1012.07
2022-11-27T15:47:01.371Z,1012.02
2022-11-27T15:48:01.343Z,1011.99
2022-11-27T15:49:01.330Z,1012.01
2022-11-27T15:50:01.338Z,1012.02
2022-11-27T15:51:01.346Z,1012.01
2022-11-27T15:52:01.301Z,1012.01
2022-11-27T15:53:01.302Z,1011.99
2022-11-27T15:54:01.271Z,1012.00
2022-11-27T15:55:01.269Z,1012.05
2022-11-27T15:56:01.253Z,1012.02
2022-11-27T15:57:01.262Z,1012.02
2022-11-27T15:58:01.362Z,1012.03
2022-11-27T15:59:01.213Z,1012.02
2022-11-27T16:00:01.225Z,1012.05
2022-11-27T16:01:01.239Z,1012.04
2022-11-27T16:02:01.256Z,1012.00
2022-11-27T16:03:01.180Z,1011.99
2022-11-27T16:04:01.158Z,1011.95
2022-11-27T16:05:01.144Z,1011.94
2022-11-27T16:06:01.139Z,1011.96
2022-11-27T16:07:01.506Z,1011.98
2022-11-27T16:08:01.186Z,1011.94
2022-11-27T16:09:01.113Z,1011.94
2022-11-27T16:10:01.094Z,1011.93
2022-11-27T16:11:01.092Z,1011.93
2022-11-27T16:12:01.070Z,1011.89
2022-11-27T16:13:01.086Z,1011.87
2022-11-27T16:14:01.179Z,1011.87
2022-11-27T16:15:01.040Z,1011.80
2022-11-27T16:16:01.115Z,1011.80
2022-11-27T16:17:01.076Z,1011.75
2022-11-27T16:18:01.030Z,1011.76
2022-11-27T16:19:01.005Z,1011.69
2022-11-27T16:20:00.986Z,1011.61
2022-11-27T16:21:00.967Z,1011.62
2022-11-27T16:22:00.972Z,1011.53
2022-11-27T16:23:00.955Z,1011.51
2022-11-27T16:24:00.983Z,1011.51
2022-11-27T16:25:00.938Z,1011.52
2022-11-27T16:26:00.924Z,1011.54
2022-11-27T16:27:00.911Z,1011.47
2022-11-27T16:28:03.023Z,1011.51
2022-11-27T16:29:00.899Z,1011.48
2022-11-27T16:30:01.025Z,1011.48
2022-11-27T16:31:00.862Z,1011.46
2022-11-27T16:32:00.947Z,1011.51
2022-11-27T16:33:00.843Z,1011.49
2022-11-27T16:34:00.819Z,1011.51
2022-11-27T16:35:00.823Z,1011.48
2022-11-27T16:36:00.799Z,1011.50
2022-11-27T16:37:00.788Z,1011.49
2022-11-27T16:38:00.778Z,1011.47
2022-11-27T16:39:00.760Z,1011.46
2022-11-27T16:40:00.771Z,1011.42
2022-11-27T16:41:00.738Z,1011.42
2022-11-27T16:42:00.731Z,1011.50
2022-11-27T16:43:00.730Z,1011.50
2022-11-27T16:44:00.709Z,1011.47
2022-11-27T16:45:00.723Z,1011.42
2022-11-27T16:46:00.837Z,1011.36
2022-11-27T16:47:00.670Z,1011.37
2022-11-27T16:48:00.674Z,1011.40
2022-11-27T16:49:00.650Z,1011.38
2022-11-27T16:50:00.647Z,1011.42
2022-11-27T16:51:00.651Z,1011.42
2022-11-27T16:52:00.620Z,1011.38
2022-11-27T16:53:00.616Z,1011.36
2022-11-27T16:54:00.595Z,1011.32
2022-11-27T16:55:00.592Z,1011.29
2022-11-27T16:56:00.572Z,1011.28
2022-11-27T16:57:00.567Z,1011.25
2022-11-27T16:58:00.565Z,1011.20
2022-11-27T16:59:03.111Z,1011.21
2022-11-27T17:00:00.524Z,1011.19
2022-11-27T17:01:00.598Z,1011.14
2022-11-27T17:02:00.696Z,1011.13
2022-11-27T17:03:00.516Z,1011.17
2022-11-27T17:04:00.495Z,1011.19
2022-11-27T17:05:00.471Z,1011.18
2022-11-27T17:06:00.470Z,1011.17
2022-11-27T17:07:00.450Z,1011.16
2022-11-27T17:08:00.551Z,1011.12
2022-11-27T17:09:00.440Z,1011.12
2022-11-27T17:10:00.433Z,1011.13
2022-11-27T17:11:04.603Z,1011.08
2022-11-27T17:12:01.416Z,1011.06
2022-11-27T17:13:00.376Z,1011.01
2022-11-27T17:14:00.367Z,1010.99
2022-11-27T17:15:00.355Z,1010.98
2022-11-27T17:16:00.379Z,1010.98
2022-11-27T17:17:00.419Z,1010.99
2022-11-27T17:18:00.452Z,1010.97
2022-11-27T17:19:00.332Z,1010.94
2022-11-27T17:20:00.578Z,1010.84
2022-11-27T17:21:00.303Z,1010.85
2022-11-27T17:22:00.277Z,1010.81
2022-11-27T17:23:00.303Z,1010.78
2022-11-27T17:24:00.252Z,1010.77
2022-11-27T17:25:00.263Z,1010.72
2022-11-27T17:26:00.244Z,1010.65
2022-11-27T17:27:00.217Z,1010.68
2022-11-27T17:28:00.231Z,1010.65
2022-11-27T17:29:00.208Z,1010.58
2022-11-27T17:30:00.192Z,1010.57
2022-11-27T17:31:00.169Z,1010.56
2022-11-27T17:32:00.351Z,1010.52
2022-11-27T17:33:00.165Z,1010.46
2022-11-27T17:34:00.279Z,1010.43
2022-11-27T17:35:00.124Z,1010.42
2022-11-27T17:36:00.257Z,1010.42
2022-11-27T17:37:00.111Z,1010.38
2022-11-27T17:38:00.108Z,1010.34
2022-11-27T17:39:00.095Z,1010.34
2022-11-27T17:40:00.119Z,1010.34
2022-11-27T17:41:00.074Z,1010.34
2022-11-27T17:42:00.049Z,1010.38
2022-11-27T17:43:00.052Z,1010.34
2022-11-27T17:44:00.051Z,1010.32